createdAt,value
2023-04-21T00:02:18.735Z,28.81
2023-04-21T00:04:45.966Z,29.19
2023-04-21T00:07:14.719Z,28.86
2023-04-21T00:09:41.600Z,29.12
2023-04-21T00:12:08.234Z,28.87
2023-04-21T00:14:34.905Z,29.43
2023-04-21T00:17:01.441Z,29.25
2023-04-21T00:19:29.764Z,29.55
2023-04-21T00:21:59.080Z,29.36
2023-04-21T00:24:26.230Z,29.48
2023-04-21T00:26:52.789Z,29.25
2023-04-21T00:29:19.590Z,29.24
2023-04-21T00:31:46.405Z,29.21
2023-04-21T00:34:13.012Z,29.27
2023-04-21T00:36:39.549Z,29.33
2023-04-21T00:39:06.314Z,29.45
2023-04-21T00:41:34.199Z,29.76
2023-04-21T00:44:00.800Z,30.00
2023-04-21T00:46:27.749Z,29.77
2023-04-21T00:48:54.393Z,29.50
2023-04-21T00:51:20.989Z,29.41
2023-04-21T00:53:47.660Z,29.35
2023-04-21T00:56:14.444Z,29.44
2023-04-21T00:58:42.487Z,29.68
2023-04-21T01:01:09.085Z,29.45
2023-04-21T01:03:35.887Z,29.33
2023-04-21T01:06:02.806Z,29.26
2023-04-21T01:08:29.371Z,29.13
2023-04-21T01:10:55.873Z,29.56
2023-04-21T01:13:22.522Z,29.46
2023-04-21T01:15:49.231Z,29.72
2023-04-21T01:18:17.090Z,29.68
2023-04-21T01:20:44.797Z,29.82
2023-04-21T01:23:11.345Z,29.42
2023-04-21T01:25:37.936Z,29.60
2023-04-21T01:28:04.585Z,29.76
2023-04-21T01:30:31.118Z,29.61
2023-04-21T01:32:58.765Z,29.68
2023-04-21T01:35:25.397Z,29.40
2023-04-21T01:37:51.993Z,29.46
2023-04-21T01:40:18.551Z,29.51
2023-04-21T01:42:45.228Z,29.80
2023-04-21T01:45:11.904Z,29.74
2023-04-21T01:47:38.538Z,29.90
2023-04-21T01:50:05.418Z,29.57
2023-04-21T01:52:32.079Z,29.71
2023-04-21T01:54:58.734Z,29.99
2023-04-21T01:57:25.253Z,29.82
2023-04-21T01:59:51.810Z,29.63
2023-04-21T02:02:18.512Z,29.76
2023-04-21T02:04:45.262Z,30.00
2023-04-21T02:07:11.866Z,30.23
2023-04-21T02:09:38.478Z,30.01
2023-04-21T02:12:05.192Z,30.12
2023-04-21T02:14:31.814Z,30.15
2023-04-21T02:16:58.453Z,29.75
2023-04-21T02:19:25.152Z,29.87
2023-04-21T02:21:51.753Z,30.23
2023-04-21T02:24:18.394Z,30.38
2023-04-21T02:26:44.948Z,30.29
2023-04-21T02:29:11.560Z,29.77
2023-04-21T02:31:49.768Z,30.54
2023-04-21T02:34:24.291Z,30.30
2023-04-21T02:36:50.848Z,30.01
2023-04-21T02:39:17.685Z,30.35
2023-04-21T02:41:44.432Z,30.73
2023-04-21T02:44:11.029Z,30.10
2023-04-21T02:46:40.185Z,29.92
2023-04-21T02:49:06.801Z,30.00
2023-04-21T02:51:33.460Z,30.01
2023-04-21T02:54:00.085Z,29.69
2023-04-21T02:56:26.700Z,30.04
2023-04-21T02:58:53.275Z,30.02
2023-04-21T03:01:19.960Z,30.03
2023-04-21T03:03:46.693Z,30.09
2023-04-21T03:06:13.386Z,30.35
2023-04-21T03:08:40.054Z,30.43
2023-04-21T03:11:06.641Z,30.60
2023-04-21T03:13:33.228Z,30.53
2023-04-21T03:15:59.797Z,31.06
2023-04-21T03:18:26.496Z,30.87
2023-04-21T03:20:53.244Z,30.98
2023-04-21T03:23:19.860Z,31.21
2023-04-21T03:25:46.482Z,30.89
2023-04-21T03:28:13.609Z,30.77
2023-04-21T03:30:40.399Z,30.58
2023-04-21T03:33:07.032Z,31.28
2023-04-21T03:35:34.460Z,30.86
2023-04-21T03:38:03.244Z,30.98
2023-04-21T03:40:30.620Z,31.22
2023-04-21T03:42:57.178Z,30.88
2023-04-21T03:45:24.199Z,30.66
2023-04-21T03:47:55.197Z,30.68
2023-04-21T03:50:21.875Z,30.47
2023-04-21T03:52:48.419Z,30.70
2023-04-21T03:55:14.982Z,30.60
2023-04-21T03:57:42.121Z,30.69
2023-04-21T04:00:10.539Z,31.09
2023-04-21T04:02:37.421Z,30.67
2023-04-21T04:05:05.280Z,30.84
2023-04-21T04:07:32.415Z,30.83
2023-04-21T04:09:59.126Z,30.67
2023-04-21T04:12:25.859Z,30.63
2023-04-21T04:14:52.434Z,30.87
2023-04-21T04:17:18.965Z,30.70
2023-04-21T04:19:45.563Z,30.87
2023-04-21T04:22:12.248Z,30.75
2023-04-21T04:24:38.795Z,30.78
2023-04-21T04:27:05.720Z,30.67
2023-04-21T04:29:32.689Z,30.48
2023-04-21T04:32:01.550Z,30.69
2023-04-21T04:34:28.104Z,30.78
2023-04-21T04:36:54.675Z,30.55
2023-04-21T04:39:22.287Z,30.60
2023-04-21T04:41:49.434Z,30.47
2023-04-21T04:44:18.077Z,30.73
2023-04-21T04:46:45.630Z,30.58
2023-04-21T04:49:12.204Z,30.58
2023-04-21T04:51:38.714Z,30.65
2023-04-21T04:54:05.914Z,30.62
2023-04-21T04:56:33.024Z,30.65
2023-04-21T04:58:59.613Z,30.67
2023-04-21T05:01:30.315Z,30.45
2023-04-21T05:03:57.437Z,30.42
2023-04-21T05:06:24.079Z,30.42
2023-04-21T05:08:50.627Z,30.43
2023-04-21T05:11:17.231Z,30.63
2023-04-21T05:13:43.914Z,30.56
2023-04-21T05:16:11.388Z,30.37
2023-04-21T05:18:38.167Z,30.48
2023-04-21T05:21:04.797Z,30.52
2023-04-21T05:23:31.427Z,30.36
2023-04-21T05:25:57.979Z,30.35
2023-04-21T05:28:24.582Z,30.28
2023-04-21T05:30:51.132Z,30.15
2023-04-21T05:33:21.270Z,30.23
2023-04-21T05:35:47.844Z,30.28
2023-04-21T05:38:14.462Z,30.11
2023-04-21T05:40:41.103Z,30.30
2023-04-21T05:43:07.657Z,30.10
2023-04-21T05:45:34.165Z,30.03
2023-04-21T05:48:00.733Z,30.00
2023-04-21T05:50:33.935Z,29.93
2023-04-21T05:53:00.534Z,29.89
2023-04-21T05:55:27.095Z,29.76
2023-04-21T05:57:53.669Z,29.74
2023-04-21T06:00:20.355Z,29.67
2023-04-21T06:02:46.986Z,29.55
2023-04-21T06:05:13.704Z,29.50
2023-04-21T06:07:40.283Z,29.41
2023-04-21T06:10:07.232Z,29.26
2023-04-21T06:12:33.855Z,29.35
2023-04-21T06:15:00.567Z,29.22
2023-04-21T06:17:27.169Z,28.89
2023-04-21T06:19:53.862Z,29.15
2023-04-21T06:22:20.950Z,29.16
2023-04-21T06:24:47.558Z,29.09
2023-04-21T06:27:14.610Z,29.16
2023-04-21T06:29:42.723Z,28.97
2023-04-21T06:32:09.805Z,29.12
2023-04-21T06:34:36.462Z,29.03
2023-04-21T06:37:03.058Z,28.63
2023-04-21T06:39:29.612Z,28.40
2023-04-21T06:41:58.155Z,28.65
2023-04-21T06:44:24.767Z,28.79
2023-04-21T06:46:51.513Z,28.89
2023-04-21T06:49:18.290Z,28.84
2023-04-21T06:51:45.066Z,28.68
2023-04-21T06:54:11.598Z,28.33
2023-04-21T06:56:38.266Z,28.28
2023-04-21T06:59:04.871Z,28.30
2023-04-21T07:01:31.563Z,28.36
2023-04-21T07:03:58.359Z,27.88
2023-04-21T07:06:25.088Z,28.09
2023-04-21T07:08:51.694Z,28.10
2023-04-21T07:11:18.279Z,28.00
2023-04-21T07:13:45.080Z,27.79
2023-04-21T07:16:11.671Z,27.82
2023-04-21T07:18:39.540Z,27.69
2023-04-21T07:21:06.666Z,27.77
2023-04-21T07:23:33.275Z,27.88
2023-04-21T07:25:59.978Z,27.88
2023-04-21T07:28:26.721Z,27.95
2023-04-21T07:30:53.355Z,27.60
2023-04-21T07:33:19.912Z,26.50
2023-04-21T07:35:46.586Z,26.96
2023-04-21T07:38:13.156Z,26.65
2023-04-21T07:40:39.693Z,26.99
2023-04-21T07:43:06.294Z,26.88
2023-04-21T07:45:32.895Z,27.14
2023-04-21T07:47:59.613Z,26.71
2023-04-21T07:50:26.473Z,26.91
2023-04-21T07:52:53.075Z,26.15
2023-04-21T07:55:19.713Z,26.45
2023-04-21T07:57:46.900Z,26.95
2023-04-21T08:00:13.801Z,27.12
2023-04-21T08:02:40.513Z,27.08
2023-04-21T08:05:07.538Z,26.99
2023-04-21T08:07:34.357Z,26.50
2023-04-21T08:10:00.894Z,26.87
2023-04-21T08:12:27.453Z,24.84
2023-04-21T08:14:55.632Z,25.21
2023-04-21T08:17:22.307Z,25.25
2023-04-21T08:19:48.935Z,24.81
2023-04-21T08:22:15.460Z,25.43
2023-04-21T08:24:42.076Z,25.83
2023-04-21T08:27:08.669Z,25.81
2023-04-21T08:29:35.303Z,25.84
2023-04-21T08:32:01.974Z,26.07
2023-04-21T08:34:28.882Z,25.70
2023-04-21T08:36:55.693Z,25.18
2023-04-21T08:39:22.566Z,24.75
2023-04-21T08:41:49.751Z,24.74
2023-04-21T08:44:16.386Z,24.94
2023-04-21T08:46:44.804Z,25.05
2023-04-21T08:49:12.793Z,25.27
2023-04-21T08:51:40.260Z,25.44
2023-04-21T08:54:06.840Z,25.63
2023-04-21T08:56:34.015Z,25.54
2023-04-21T08:59:08.180Z,24.95
2023-04-21T09:01:54.691Z,25.35
2023-04-21T09:04:24.063Z,25.68
2023-04-21T09:06:50.910Z,25.72
2023-04-21T09:09:17.544Z,25.62
2023-04-21T09:11:44.231Z,25.69
2023-04-21T09:14:11.427Z,25.51
2023-04-21T09:16:38.007Z,25.61
2023-04-21T09:19:13.611Z,25.72
2023-04-21T09:21:43.887Z,25.70
2023-04-21T09:24:10.534Z,25.95
2023-04-21T09:26:37.168Z,25.93
2023-04-21T09:29:06.490Z,26.24
2023-04-21T09:31:35.308Z,26.19
2023-04-21T09:34:02.140Z,26.13
2023-04-21T09:36:30.515Z,26.10
2023-04-21T09:39:20.638Z,26.05
2023-04-21T09:41:45.068Z,26.09
2023-04-21T09:44:11.837Z,26.16
2023-04-21T09:46:38.595Z,26.00
2023-04-21T09:49:06.070Z,26.29
2023-04-21T09:52:02.164Z,26.49
2023-04-21T09:56:53.151Z,26.39
2023-04-21T09:59:25.082Z,26.14
2023-04-21T10:01:53.482Z,25.09
2023-04-21T10:04:21.545Z,25.78
2023-04-21T10:06:48.836Z,25.69
2023-04-21T10:09:18.405Z,25.46
2023-04-21T10:11:45.141Z,25.80
2023-04-21T10:14:11.739Z,26.04
2023-04-21T10:16:38.549Z,26.18
2023-04-21T10:19:25.101Z,25.66
2023-04-21T10:21:51.878Z,25.02
2023-04-21T10:24:18.966Z,24.90
2023-04-21T10:26:45.859Z,24.59
2023-04-21T10:29:12.491Z,24.01
2023-04-21T10:31:51.968Z,23.35
2023-04-21T10:34:22.500Z,22.25
2023-04-21T10:36:51.824Z,21.93
2023-04-21T10:39:28.384Z,21.28
2023-04-21T10:42:20.770Z,22.06
2023-04-21T10:44:54.583Z,21.68
2023-04-21T10:47:37.066Z,21.20
2023-04-21T10:50:13.255Z,20.81
2023-04-21T10:52:40.032Z,18.90
2023-04-21T10:55:06.949Z,16.86
2023-04-21T10:57:34.541Z,18.42
2023-04-21T11:00:01.538Z,19.88
2023-04-21T11:02:31.404Z,19.35
2023-04-21T11:04:59.147Z,21.08
2023-04-21T11:07:26.178Z,20.44
2023-04-21T11:10:00.004Z,20.45
2023-04-21T11:12:28.228Z,20.29
2023-04-21T11:14:54.909Z,19.19
2023-04-21T11:17:23.261Z,19.32
2023-04-21T11:19:56.675Z,19.31
2023-04-21T11:22:23.997Z,17.72
2023-04-21T11:24:54.351Z,16.76
2023-04-21T11:27:22.392Z,17.27
2023-04-21T11:29:50.090Z,18.77
2023-04-21T11:32:17.082Z,17.29
2023-04-21T11:34:43.780Z,15.75
2023-04-21T11:37:14.117Z,16.67
2023-04-21T11:39:41.240Z,16.67
2023-04-21T11:42:07.845Z,17.47
2023-04-21T11:44:41.872Z,17.58
2023-04-21T11:47:15.322Z,18.03
2023-04-21T11:49:49.239Z,17.88
2023-04-21T11:52:23.068Z,18.19
2023-04-21T11:54:54.429Z,17.83
2023-04-21T11:57:22.403Z,17.78
2023-04-21T11:59:49.078Z,17.83
2023-04-21T12:02:26.451Z,17.47
2023-04-21T12:05:00.313Z,17.60
2023-04-21T12:07:27.416Z,18.48
2023-04-21T12:09:54.050Z,17.86
2023-04-21T12:12:22.175Z,18.72
2023-04-21T12:14:49.521Z,18.69
2023-04-21T12:17:16.139Z,17.97
2023-04-21T12:19:43.047Z,18.89
2023-04-21T12:22:10.711Z,18.68
2023-04-21T12:24:37.698Z,18.88
2023-04-21T12:27:04.906Z,19.36
2023-04-21T12:29:31.537Z,20.26
2023-04-21T12:31:58.200Z,20.29
2023-04-21T12:34:24.836Z,20.26
2023-04-21T12:36:51.402Z,20.86
2023-04-21T12:39:18.988Z,19.82
2023-04-21T12:41:47.402Z,19.20
2023-04-21T12:44:14.765Z,18.76
2023-04-21T12:46:41.568Z,17.45
2023-04-21T12:49:09.087Z,17.53
2023-04-21T12:51:35.695Z,17.88
2023-04-21T12:54:02.625Z,17.65
2023-04-21T12:56:30.014Z,17.11
2023-04-21T12:58:57.293Z,17.44
2023-04-21T13:01:24.345Z,18.69
2023-04-21T13:03:51.053Z,18.89
2023-04-21T13:06:17.928Z,19.61
2023-04-21T13:08:44.508Z,19.92
2023-04-21T13:11:11.163Z,20.28
2023-04-21T13:13:39.024Z,19.93
2023-04-21T13:16:05.881Z,19.26
2023-04-21T13:18:34.871Z,19.43
2023-04-21T13:21:01.830Z,20.02
2023-04-21T13:23:28.803Z,19.98
2023-04-21T13:25:55.802Z,19.93
2023-04-21T13:28:22.894Z,19.35
2023-04-21T13:30:50.852Z,19.60
2023-04-21T13:33:17.520Z,18.98
2023-04-21T13:35:44.049Z,18.94
2023-04-21T13:38:10.697Z,18.90
2023-04-21T13:40:37.342Z,18.40
2023-04-21T13:43:04.041Z,19.33
2023-04-21T13:45:31.366Z,19.25
2023-04-21T13:48:01.244Z,18.71
2023-04-21T13:50:27.871Z,18.45
2023-04-21T13:52:54.440Z,17.94
2023-04-21T13:55:21.436Z,18.29
2023-04-21T13:57:48.062Z,18.68
2023-04-21T14:00:15.046Z,18.68
2023-04-21T14:02:42.130Z,18.03
2023-04-21T14:05:09.092Z,18.43
2023-04-21T14:07:36.597Z,17.04
2023-04-21T14:10:04.440Z,17.92
2023-04-21T14:12:31.188Z,17.46
2023-04-21T14:14:57.795Z,17.23
2023-04-21T14:17:24.485Z,17.37
2023-04-21T14:19:52.598Z,17.52
2023-04-21T14:22:21.041Z,17.44
2023-04-21T14:24:47.720Z,18.21
2023-04-21T14:27:14.290Z,18.34
2023-04-21T14:29:40.946Z,18.13
2023-04-21T14:32:07.835Z,17.81
2023-04-21T14:34:34.448Z,17.44
2023-04-21T14:37:01.071Z,17.72
2023-04-21T14:39:27.697Z,17.75
2023-04-21T14:41:54.301Z,17.95
2023-04-21T14:44:20.956Z,17.86
2023-04-21T14:46:57.014Z,17.73
2023-04-21T14:49:32.843Z,18.71
2023-04-21T14:51:59.740Z,19.12
2023-04-21T14:54:26.474Z,18.77
2023-04-21T14:57:00.447Z,18.84
2023-04-21T14:59:33.851Z,19.01
2023-04-21T15:02:00.862Z,19.04
2023-04-21T15:04:27.815Z,19.04
2023-04-21T15:06:54.708Z,19.51
2023-04-21T15:09:21.655Z,19.73
2023-04-21T15:11:48.355Z,19.96
2023-04-21T15:14:14.930Z,20.93
2023-04-21T15:16:41.588Z,21.01
2023-04-21T15:19:08.345Z,20.53
2023-04-21T15:21:34.900Z,22.02
2023-04-21T15:24:01.486Z,21.09
2023-04-21T15:26:30.333Z,21.57
2023-04-21T15:28:57.585Z,21.72
2023-04-21T15:31:24.271Z,22.03
2023-04-21T15:33:50.954Z,22.27
2023-04-21T15:36:17.504Z,22.83
2023-04-21T15:38:45.018Z,23.17
2023-04-21T15:41:11.800Z,23.01
2023-04-21T15:43:38.425Z,23.17
2023-04-21T15:46:12.995Z,23.85
2023-04-21T15:48:41.276Z,24.72
2023-04-21T15:51:08.293Z,23.94
2023-04-21T15:53:35.639Z,24.67
2023-04-21T15:56:02.252Z,24.77
2023-04-21T15:58:28.757Z,25.97
2023-04-21T16:00:55.347Z,25.57
2023-04-21T16:03:22.658Z,25.67
2023-04-21T16:05:49.477Z,25.34
2023-04-21T16:08:16.258Z,25.09
2023-04-21T16:10:42.913Z,25.13
2023-04-21T16:13:10.215Z,25.21
2023-04-21T16:15:36.923Z,26.21
2023-04-21T16:18:06.499Z,25.69
2023-04-21T16:20:33.256Z,25.52
2023-04-21T16:22:59.933Z,25.32
2023-04-21T16:25:27.252Z,25.11
2023-04-21T16:27:54.016Z,25.21
2023-04-21T16:30:20.720Z,25.10
2023-04-21T16:32:47.347Z,25.81
2023-04-21T16:35:14.005Z,25.69
2023-04-21T16:37:42.751Z,25.77
2023-04-21T16:40:09.929Z,26.37
2023-04-21T16:42:36.625Z,26.45
2023-04-21T16:45:04.553Z,27.09
2023-04-21T16:47:34.118Z,26.45
2023-04-21T16:50:00.920Z,26.32
2023-04-21T16:52:27.956Z,27.14
2023-04-21T16:54:54.627Z,27.28
2023-04-21T16:57:23.846Z,27.35
2023-04-21T16:59:51.505Z,27.64
2023-04-21T17:02:18.253Z,26.91
2023-04-21T17:04:44.891Z,26.89
2023-04-21T17:07:11.492Z,28.23
2023-04-21T17:09:38.206Z,27.16
2023-04-21T17:12:04.932Z,27.96
2023-04-21T17:14:31.526Z,28.38
2023-04-21T17:16:59.060Z,27.77
2023-04-21T17:19:25.751Z,27.64
2023-04-21T17:21:52.315Z,27.46
2023-04-21T17:24:18.959Z,27.66
2023-04-21T17:26:45.510Z,27.46
2023-04-21T17:29:12.126Z,29.48
2023-04-21T17:31:38.734Z,29.97
2023-04-21T17:34:05.443Z,28.66
2023-04-21T17:36:32.249Z,28.45
2023-04-21T17:38:59.154Z,28.96
2023-04-21T17:41:26.322Z,28.19
2023-04-21T17:43:54.872Z,28.07
2023-04-21T17:46:24.766Z,28.26
2023-04-21T17:48:51.910Z,28.41
2023-04-21T17:51:19.369Z,28.12
2023-04-21T17:53:49.225Z,28.69
2023-04-21T17:56:15.874Z,28.70
2023-04-21T17:58:42.444Z,28.52
2023-04-21T18:01:09.181Z,28.18
2023-04-21T18:03:41.331Z,28.38
2023-04-21T18:06:09.945Z,28.20
2023-04-21T18:08:37.167Z,28.93
2023-04-21T18:11:03.745Z,28.77
2023-04-21T18:13:30.731Z,31.16
2023-04-21T18:15:57.902Z,29.46
2023-04-21T18:18:24.744Z,29.22
2023-04-21T18:20:51.458Z,29.10
2023-04-21T18:23:18.098Z,28.81
2023-04-21T18:25:44.694Z,29.04
2023-04-21T18:28:12.854Z,31.63
2023-04-21T18:30:39.886Z,29.60
2023-04-21T18:33:06.545Z,29.67
2023-04-21T18:35:34.288Z,29.79
2023-04-21T18:38:01.261Z,31.40
2023-04-21T18:40:28.256Z,30.43
2023-04-21T18:42:55.710Z,31.52
2023-04-21T18:45:22.526Z,30.43
2023-04-21T18:47:49.197Z,31.04
2023-04-21T18:50:16.098Z,31.46
2023-04-21T18:52:42.778Z,30.51
2023-04-21T18:55:09.618Z,30.35
2023-04-21T19:00:26.850Z,30.39
2023-04-21T19:02:53.824Z,30.35
2023-04-21T19:05:20.645Z,30.45
2023-04-21T19:07:47.515Z,30.91
2023-04-21T19:10:14.049Z,31.10
2023-04-21T19:12:41.764Z,31.26
2023-04-21T19:15:08.615Z,31.15
2023-04-21T19:17:35.660Z,30.95
2023-04-21T19:20:02.342Z,32.21
2023-04-21T19:22:32.060Z,31.27
2023-04-21T19:24:58.710Z,32.01
2023-04-21T19:27:27.958Z,31.62
2023-04-21T19:29:54.664Z,31.34
2023-04-21T19:32:21.571Z,31.37
2023-04-21T19:34:48.250Z,31.42
2023-04-21T19:37:15.300Z,31.50
2023-04-21T19:39:42.172Z,31.63
2023-04-21T19:42:08.799Z,31.50
2023-04-21T19:44:35.777Z,31.80
2023-04-21T19:47:02.614Z,31.53
2023-04-21T19:49:29.231Z,31.31
2023-04-21T19:51:56.189Z,31.61
2023-04-21T19:54:22.741Z,31.77
2023-04-21T19:56:49.755Z,31.53
2023-04-21T19:59:16.364Z,31.41
2023-04-21T20:01:43.064Z,31.46
2023-04-21T20:04:12.025Z,31.98
2023-04-21T20:06:40.008Z,31.83
2023-04-21T20:09:06.606Z,31.70
2023-04-21T20:11:34.210Z,31.89
2023-04-21T20:14:00.926Z,31.88
2023-04-21T20:16:27.754Z,31.92
2023-04-21T20:18:55.667Z,31.77
2023-04-21T20:21:22.345Z,32.27
2023-04-21T20:23:48.969Z,32.25
2023-04-21T20:26:16.974Z,31.90
2023-04-21T20:28:43.552Z,31.68
2023-04-21T20:31:10.229Z,32.15
2023-04-21T20:33:36.873Z,32.09
2023-04-21T20:36:07.330Z,31.85
2023-04-21T20:38:34.933Z,31.81
2023-04-21T20:41:02.195Z,32.30
2023-04-21T20:43:28.959Z,32.21
2023-04-21T20:45:55.549Z,32.27
2023-04-21T20:48:22.265Z,32.02
2023-04-21T20:50:51.235Z,32.49
2023-04-21T20:53:18.300Z,32.45
2023-04-21T20:55:44.856Z,32.46
2023-04-21T20:58:11.476Z,32.25
2023-04-21T21:00:38.186Z,32.39
2023-04-21T21:03:09.950Z,32.65
2023-04-21T21:05:37.469Z,32.44
2023-04-21T21:08:04.562Z,32.43
2023-04-21T21:10:31.266Z,32.48
2023-04-21T21:12:59.466Z,32.40
2023-04-21T21:15:26.990Z,32.62
2023-04-21T21:17:53.615Z,32.82
2023-04-21T21:20:20.285Z,32.80
2023-04-21T21:22:47.076Z,32.72
2023-04-21T21:25:13.639Z,32.88
2023-04-21T21:27:40.297Z,33.04
2023-04-21T21:30:07.222Z,33.27
2023-04-21T21:32:33.814Z,32.98
2023-04-21T21:35:00.438Z,33.31
2023-04-21T21:37:27.018Z,33.31
2023-04-21T21:39:55.296Z,33.49
2023-04-21T21:42:22.534Z,33.33
2023-04-21T21:44:49.157Z,33.36
2023-04-21T21:47:17.454Z,33.01
2023-04-21T21:49:44.293Z,33.19
2023-04-21T21:52:11.054Z,33.36
2023-04-21T21:54:37.659Z,33.18
2023-04-21T21:57:04.335Z,33.78
2023-04-21T21:59:31.072Z,33.68
2023-04-21T22:01:57.774Z,33.06
2023-04-21T22:04:24.488Z,33.60
2023-04-21T22:06:51.997Z,33.65
2023-04-21T22:09:18.621Z,33.47
2023-04-21T22:11:46.275Z,33.43
2023-04-21T22:14:22.878Z,33.35
2023-04-21T22:16:50.732Z,33.61
2023-04-21T22:19:18.977Z,33.48
2023-04-21T22:21:45.909Z,34.21
2023-04-21T22:24:12.949Z,34.01
2023-04-21T22:26:39.755Z,34.12
2023-04-21T22:29:06.400Z,34.57
2023-04-21T22:31:33.076Z,34.39
2023-04-21T22:33:59.746Z,34.86
2023-04-21T22:36:26.296Z,34.07
2023-04-21T22:38:52.894Z,34.12
2023-04-21T22:41:19.679Z,34.35
2023-04-21T22:43:46.251Z,34.28
2023-04-21T22:46:12.935Z,34.48
2023-04-21T22:48:39.763Z,33.95
2023-04-21T22:51:07.333Z,34.15
2023-04-21T22:53:33.962Z,34.07
2023-04-21T22:56:00.604Z,34.79
2023-04-21T22:58:27.238Z,34.57
2023-04-21T23:00:54.096Z,35.40
2023-04-21T23:03:20.959Z,35.03
2023-04-21T23:05:47.779Z,35.33
2023-04-21T23:08:14.425Z,34.71
2023-04-21T23:10:41.035Z,34.66
2023-04-21T23:13:07.588Z,35.21
2023-04-21T23:15:34.148Z,35.27
2023-04-21T23:18:00.914Z,35.02
2023-04-21T23:20:27.631Z,35.12
2023-04-21T23:22:54.213Z,34.86
2023-04-21T23:25:20.839Z,34.91
2023-04-21T23:27:47.369Z,35.19
2023-04-21T23:30:14.290Z,35.30
2023-04-21T23:32:41.436Z,35.57
2023-04-21T23:35:09.530Z,35.56
2023-04-21T23:37:36.179Z,35.63
2023-04-21T23:40:03.137Z,35.70
2023-04-21T23:42:29.808Z,35.34
2023-04-21T23:44:56.560Z,37.74
2023-04-21T23:47:23.136Z,39.43
2023-04-21T23:49:49.755Z,38.94
2023-04-21T23:52:16.239Z,38.90
2023-04-21T23:54:42.829Z,42.56
2023-04-21T23:57:09.507Z,43.27
2023-04-21T23:59:36.324Z,43.01
